sensor_id;sensor_type;location;lat;lon;timestamp;temperature;humidity
20712;DHT22;10517;50.742;4.224;2023-06-04T00:00:58;15.80;84.80
20712;DHT22;10517;50.742;4.224;2023-06-04T00:03:24;15.80;84.70
20712;DHT22;10517;50.742;4.224;2023-06-04T00:05:49;15.60;84.90
20712;DHT22;10517;50.742;4.224;2023-06-04T00:08:15;15.60;85.70
20712;DHT22;10517;50.742;4.224;2023-06-04T00:10:41;15.60;85.60
20712;DHT22;10517;50.742;4.224;2023-06-04T00:13:06;15.50;85.90
20712;DHT22;10517;50.742;4.224;2023-06-04T00:15:32;15.50;85.60
20712;DHT22;10517;50.742;4.224;2023-06-04T00:17:58;15.40;85.80
20712;DHT22;10517;50.742;4.224;2023-06-04T00:20:23;15.30;86.20
20712;DHT22;10517;50.742;4.224;2023-06-04T00:22:49;15.20;86.40
20712;DHT22;10517;50.742;4.224;2023-06-04T00:25:14;15.20;87.00
20712;DHT22;10517;50.742;4.224;2023-06-04T00:27:40;15.10;87.00
20712;DHT22;10517;50.742;4.224;2023-06-04T00:30:06;15.10;87.80
20712;DHT22;10517;50.742;4.224;2023-06-04T00:32:32;15.10;87.60
20712;DHT22;10517;50.742;4.224;2023-06-04T00:34:57;15.10;87.50
20712;DHT22;10517;50.742;4.224;2023-06-04T00:37:24;15.00;87.90
20712;DHT22;10517;50.742;4.224;2023-06-04T00:39:50;14.90;88.50
20712;DHT22;10517;50.742;4.224;2023-06-04T00:42:17;14.90;89.10
20712;DHT22;10517;50.742;4.224;2023-06-04T00:44:43;14.90;89.80
20712;DHT22;10517;50.742;4.224;2023-06-04T00:47:11;14.90;90.40
20712;DHT22;10517;50.742;4.224;2023-06-04T00:49:38;14.90;91.50
20712;DHT22;10517;50.742;4.224;2023-06-04T00:52:04;14.80;91.50
20712;DHT22;10517;50.742;4.224;2023-06-04T00:54:31;14.70;91.10
20712;DHT22;10517;50.742;4.224;2023-06-04T00:56:58;14.70;91.60
20712;DHT22;10517;50.742;4.224;2023-06-04T00:59:24;14.60;91.30
20712;DHT22;10517;50.742;4.224;2023-06-04T01:02:00;14.60;92.30
20712;DHT22;10517;50.742;4.224;2023-06-04T01:07:03;14.40;92.40
20712;DHT22;10517;50.742;4.224;2023-06-04T01:09:30;14.40;93.30
20712;DHT22;10517;50.742;4.224;2023-06-04T01:11:56;14.30;94.60
20712;DHT22;10517;50.742;4.224;2023-06-04T01:14:27;14.20;94.50
20712;DHT22;10517;50.742;4.224;2023-06-04T01:16:59;14.10;94.90
20712;DHT22;10517;50.742;4.224;2023-06-04T01:25:01;14.00;94.00
20712;DHT22;10517;50.742;4.224;2023-06-04T01:27:28;14.00;94.00
20712;DHT22;10517;50.742;4.224;2023-06-04T01:29:54;14.00;94.50
20712;DHT22;10517;50.742;4.224;2023-06-04T01:32:23;14.00;94.00
20712;DHT22;10517;50.742;4.224;2023-06-04T01:34:49;13.90;94.30
20712;DHT22;10517;50.742;4.224;2023-06-04T01:37:14;13.90;94.40
20712;DHT22;10517;50.742;4.224;2023-06-04T01:39:41;13.80;94.70
20712;DHT22;10517;50.742;4.224;2023-06-04T01:42:08;13.80;94.60
20712;DHT22;10517;50.742;4.224;2023-06-04T01:44:34;13.70;95.20
20712;DHT22;10517;50.742;4.224;2023-06-04T01:46:59;13.70;95.00
20712;DHT22;10517;50.742;4.224;2023-06-04T01:49:25;13.70;95.40
20712;DHT22;10517;50.742;4.224;2023-06-04T01:51:51;13.60;95.30
20712;DHT22;10517;50.742;4.224;2023-06-04T01:54:16;13.60;95.40
20712;DHT22;10517;50.742;4.224;2023-06-04T01:56:43;13.60;95.70
20712;DHT22;10517;50.742;4.224;2023-06-04T01:59:08;13.60;95.70
20712;DHT22;10517;50.742;4.224;2023-06-04T02:01:37;13.50;96.10
20712;DHT22;10517;50.742;4.224;2023-06-04T02:04:03;13.50;96.10
20712;DHT22;10517;50.742;4.224;2023-06-04T02:06:29;13.50;96.20
20712;DHT22;10517;50.742;4.224;2023-06-04T02:08:55;13.50;96.40
20712;DHT22;10517;50.742;4.224;2023-06-04T02:11:21;13.40;96.60
20712;DHT22;10517;50.742;4.224;2023-06-04T02:13:46;13.40;96.90
20712;DHT22;10517;50.742;4.224;2023-06-04T02:16:12;13.40;97.30
20712;DHT22;10517;50.742;4.224;2023-06-04T02:18:38;13.30;97.50
20712;DHT22;10517;50.742;4.224;2023-06-04T02:21:03;13.30;97.80
20712;DHT22;10517;50.742;4.224;2023-06-04T02:23:29;13.30;97.80
20712;DHT22;10517;50.742;4.224;2023-06-04T02:25:55;13.20;97.90
20712;DHT22;10517;50.742;4.224;2023-06-04T02:28:20;13.10;98.20
20712;DHT22;10517;50.742;4.224;2023-06-04T02:30:46;13.10;98.40
20712;DHT22;10517;50.742;4.224;2023-06-04T02:33:12;13.10;98.90
20712;DHT22;10517;50.742;4.224;2023-06-04T02:35:38;13.10;99.20
20712;DHT22;10517;50.742;4.224;2023-06-04T02:38:04;13.10;99.50
20712;DHT22;10517;50.742;4.224;2023-06-04T02:40:30;13.10;99.70
20712;DHT22;10517;50.742;4.224;2023-06-04T02:42:56;13.10;99.90
20712;DHT22;10517;50.742;4.224;2023-06-04T02:45:22;13.10;99.90
20712;DHT22;10517;50.742;4.224;2023-06-04T02:47:48;13.10;99.90
20712;DHT22;10517;50.742;4.224;2023-06-04T02:50:15;13.00;99.90
20712;DHT22;10517;50.742;4.224;2023-06-04T02:52:41;13.00;99.90
20712;DHT22;10517;50.742;4.224;2023-06-04T02:55:07;12.90;99.90
20712;DHT22;10517;50.742;4.224;2023-06-04T02:57:34;12.90;99.90
20712;DHT22;10517;50.742;4.224;2023-06-04T03:00:00;12.90;99.90
20712;DHT22;10517;50.742;4.224;2023-06-04T03:02:26;12.80;99.90
20712;DHT22;10517;50.742;4.224;2023-06-04T03:04:53;12.80;99.90
20712;DHT22;10517;50.742;4.224;2023-06-04T03:07:20;12.80;99.90
20712;DHT22;10517;50.742;4.224;2023-06-04T03:09:48;12.80;99.90
20712;DHT22;10517;50.742;4.224;2023-06-04T03:12:14;12.80;99.90
20712;DHT22;10517;50.742;4.224;2023-06-04T03:14:40;12.80;99.90
20712;DHT22;10517;50.742;4.224;2023-06-04T03:17:05;12.80;99.90
20712;DHT22;10517;50.742;4.224;2023-06-04T03:19:40;12.80;99.90
20712;DHT22;10517;50.742;4.224;2023-06-04T03:22:07;12.70;99.90
20712;DHT22;10517;50.742;4.224;2023-06-04T03:24:35;12.60;99.90
20712;DHT22;10517;50.742;4.224;2023-06-04T03:27:05;12.60;99.90
20712;DHT22;10517;50.742;4.224;2023-06-04T03:29:31;12.70;99.90
20712;DHT22;10517;50.742;4.224;2023-06-04T03:31:57;12.70;99.90
20712;DHT22;10517;50.742;4.224;2023-06-04T03:34:23;12.60;99.90
20712;DHT22;10517;50.742;4.224;2023-06-04T03:36:52;12.70;99.90
20712;DHT22;10517;50.742;4.224;2023-06-04T03:39:18;12.80;99.90
20712;DHT22;10517;50.742;4.224;2023-06-04T03:41:44;12.60;99.90
20712;DHT22;10517;50.742;4.224;2023-06-04T03:44:12;12.50;99.90
20712;DHT22;10517;50.742;4.224;2023-06-04T03:46:39;12.60;99.90
20712;DHT22;10517;50.742;4.224;2023-06-04T03:49:05;12.60;99.90
20712;DHT22;10517;50.742;4.224;2023-06-04T03:51:30;12.60;99.90
20712;DHT22;10517;50.742;4.224;2023-06-04T03:53:58;12.60;99.90
20712;DHT22;10517;50.742;4.224;2023-06-04T03:56:23;12.50;99.90
20712;DHT22;10517;50.742;4.224;2023-06-04T03:58:49;12.50;99.90
20712;DHT22;10517;50.742;4.224;2023-06-04T04:01:16;12.50;99.90
20712;DHT22;10517;50.742;4.224;2023-06-04T04:03:42;12.50;99.90
20712;DHT22;10517;50.742;4.224;2023-06-04T04:06:09;12.50;99.90
20712;DHT22;10517;50.742;4.224;2023-06-04T04:08:35;12.50;99.90
20712;DHT22;10517;50.742;4.224;2023-06-04T04:11:02;12.60;99.90
20712;DHT22;10517;50.742;4.224;2023-06-04T04:13:28;12.60;99.90
20712;DHT22;10517;50.742;4.224;2023-06-04T04:15:54;12.70;99.90
20712;DHT22;10517;50.742;4.224;2023-06-04T04:18:20;12.70;99.90
20712;DHT22;10517;50.742;4.224;2023-06-04T04:20:46;12.70;99.90
20712;DHT22;10517;50.742;4.224;2023-06-04T04:23:12;12.70;99.90
20712;DHT22;10517;50.742;4.224;2023-06-04T04:25:38;12.70;99.90
20712;DHT22;10517;50.742;4.224;2023-06-04T04:28:04;12.70;99.90
20712;DHT22;10517;50.742;4.224;2023-06-04T04:30:36;12.70;99.90
20712;DHT22;10517;50.742;4.224;2023-06-04T04:33:02;12.70;99.90
20712;DHT22;10517;50.742;4.224;2023-06-04T04:35:30;12.70;99.90
20712;DHT22;10517;50.742;4.224;2023-06-04T04:37:58;12.80;99.90
20712;DHT22;10517;50.742;4.224;2023-06-04T04:40:24;12.80;99.90
20712;DHT22;10517;50.742;4.224;2023-06-04T04:42:50;12.80;99.90
20712;DHT22;10517;50.742;4.224;2023-06-04T04:45:16;12.80;99.90
20712;DHT22;10517;50.742;4.224;2023-06-04T04:47:42;12.90;99.90
20712;DHT22;10517;50.742;4.224;2023-06-04T04:50:08;13.00;99.90
20712;DHT22;10517;50.742;4.224;2023-06-04T04:52:34;13.10;99.90
20712;DHT22;10517;50.742;4.224;2023-06-04T04:54:59;13.10;99.90
20712;DHT22;10517;50.742;4.224;2023-06-04T04:57:25;13.20;99.90
20712;DHT22;10517;50.742;4.224;2023-06-04T04:59:51;13.20;99.90
20712;DHT22;10517;50.742;4.224;2023-06-04T05:02:16;13.20;99.90
20712;DHT22;10517;50.742;4.224;2023-06-04T05:04:42;13.20;99.90
20712;DHT22;10517;50.742;4.224;2023-06-04T05:07:08;13.40;99.90
20712;DHT22;10517;50.742;4.224;2023-06-04T05:09:33;13.40;99.90
20712;DHT22;10517;50.742;4.224;2023-06-04T05:11:59;13.50;99.90
20712;DHT22;10517;50.742;4.224;2023-06-04T05:14:25;13.60;99.90
20712;DHT22;10517;50.742;4.224;2023-06-04T05:16:51;13.80;99.90
20712;DHT22;10517;50.742;4.224;2023-06-04T05:19:16;13.80;99.90
20712;DHT22;10517;50.742;4.224;2023-06-04T05:21:42;13.90;99.90
20712;DHT22;10517;50.742;4.224;2023-06-04T05:24:10;13.90;99.90
20712;DHT22;10517;50.742;4.224;2023-06-04T05:26:36;13.90;99.90
20712;DHT22;10517;50.742;4.224;2023-06-04T05:29:02;14.00;99.90
20712;DHT22;10517;50.742;4.224;2023-06-04T05:31:29;14.00;99.90
20712;DHT22;10517;50.742;4.224;2023-06-04T05:33:59;14.10;99.90
20712;DHT22;10517;50.742;4.224;2023-06-04T05:36:27;14.10;99.90
20712;DHT22;10517;50.742;4.224;2023-06-04T05:38:53;14.10;99.90
20712;DHT22;10517;50.742;4.224;2023-06-04T05:41:24;14.10;99.90
20712;DHT22;10517;50.742;4.224;2023-06-04T05:43:49;14.10;99.90
20712;DHT22;10517;50.742;4.224;2023-06-04T05:46:15;14.00;99.90
20712;DHT22;10517;50.742;4.224;2023-06-04T05:48:41;14.20;99.90
20712;DHT22;10517;50.742;4.224;2023-06-04T05:51:06;14.40;99.90
20712;DHT22;10517;50.742;4.224;2023-06-04T05:53:32;14.40;99.90
20712;DHT22;10517;50.742;4.224;2023-06-04T05:55:58;14.50;99.90
20712;DHT22;10517;50.742;4.224;2023-06-04T05:58:24;14.50;99.90
20712;DHT22;10517;50.742;4.224;2023-06-04T06:00:50;14.60;99.90
20712;DHT22;10517;50.742;4.224;2023-06-04T06:03:16;14.60;99.90
20712;DHT22;10517;50.742;4.224;2023-06-04T06:05:42;14.60;99.90
20712;DHT22;10517;50.742;4.224;2023-06-04T06:08:08;14.60;99.90
20712;DHT22;10517;50.742;4.224;2023-06-04T06:10:34;14.60;99.90
20712;DHT22;10517;50.742;4.224;2023-06-04T06:13:00;14.80;99.90
20712;DHT22;10517;50.742;4.224;2023-06-04T06:15:28;14.90;99.90
20712;DHT22;10517;50.742;4.224;2023-06-04T06:17:54;14.90;99.90
20712;DHT22;10517;50.742;4.224;2023-06-04T06:20:20;15.00;99.90
20712;DHT22;10517;50.742;4.224;2023-06-04T06:22:47;15.10;99.90
20712;DHT22;10517;50.742;4.224;2023-06-04T06:25:13;15.20;99.90
20712;DHT22;10517;50.742;4.224;2023-06-04T06:27:41;15.30;99.90
20712;DHT22;10517;50.742;4.224;2023-06-04T06:30:07;15.30;99.90
20712;DHT22;10517;50.742;4.224;2023-06-04T06:32:34;15.30;99.90
20712;DHT22;10517;50.742;4.224;2023-06-04T06:35:00;15.40;99.90
20712;DHT22;10517;50.742;4.224;2023-06-04T06:37:26;15.40;99.90
20712;DHT22;10517;50.742;4.224;2023-06-04T06:39:51;15.50;99.90
20712;DHT22;10517;50.742;4.224;2023-06-04T06:42:17;15.50;99.90
20712;DHT22;10517;50.742;4.224;2023-06-04T06:44:47;15.60;99.90
20712;DHT22;10517;50.742;4.224;2023-06-04T06:47:12;15.70;99.90
20712;DHT22;10517;50.742;4.224;2023-06-04T06:49:42;15.80;99.90
20712;DHT22;10517;50.742;4.224;2023-06-04T06:52:08;15.80;99.90
20712;DHT22;10517;50.742;4.224;2023-06-04T06:54:33;16.00;99.90
20712;DHT22;10517;50.742;4.224;2023-06-04T06:56:59;16.10;99.90
20712;DHT22;10517;50.742;4.224;2023-06-04T06:59:25;16.20;99.90
20712;DHT22;10517;50.742;4.224;2023-06-04T07:01:51;16.30;99.90
20712;DHT22;10517;50.742;4.224;2023-06-04T07:04:16;16.20;99.90
20712;DHT22;10517;50.742;4.224;2023-06-04T07:06:44;16.30;99.90
20712;DHT22;10517;50.742;4.224;2023-06-04T07:09:10;16.50;99.90
20712;DHT22;10517;50.742;4.224;2023-06-04T07:11:35;16.70;99.90
20712;DHT22;10517;50.742;4.224;2023-06-04T07:14:01;16.80;99.90
20712;DHT22;10517;50.742;4.224;2023-06-04T07:16:30;16.90;99.90
20712;DHT22;10517;50.742;4.224;2023-06-04T07:18:57;16.90;99.90
20712;DHT22;10517;50.742;4.224;2023-06-04T07:21:23;17.00;99.90
20712;DHT22;10517;50.742;4.224;2023-06-04T07:23:49;17.00;99.90
20712;DHT22;10517;50.742;4.224;2023-06-04T07:26:16;17.00;99.90
20712;DHT22;10517;50.742;4.224;2023-06-04T07:28:43;17.10;99.90
20712;DHT22;10517;50.742;4.224;2023-06-04T07:31:08;17.10;99.90
20712;DHT22;10517;50.742;4.224;2023-06-04T07:33:34;17.20;99.90
20712;DHT22;10517;50.742;4.224;2023-06-04T07:36:00;17.30;99.90
20712;DHT22;10517;50.742;4.224;2023-06-04T07:38:26;17.30;99.90
20712;DHT22;10517;50.742;4.224;2023-06-04T07:40:52;17.40;99.90
20712;DHT22;10517;50.742;4.224;2023-06-04T07:43:17;17.50;99.90
20712;DHT22;10517;50.742;4.224;2023-06-04T07:45:43;17.40;99.90
20712;DHT22;10517;50.742;4.224;2023-06-04T07:48:09;17.50;99.90
20712;DHT22;10517;50.742;4.224;2023-06-04T07:50:36;17.50;99.90
20712;DHT22;10517;50.742;4.224;2023-06-04T07:53:02;17.60;99.90
20712;DHT22;10517;50.742;4.224;2023-06-04T07:55:27;17.70;99.90
20712;DHT22;10517;50.742;4.224;2023-06-04T07:57:53;17.60;99.90
20712;DHT22;10517;50.742;4.224;2023-06-04T08:00:19;17.60;99.90
20712;DHT22;10517;50.742;4.224;2023-06-04T08:02:45;17.70;99.90
20712;DHT22;10517;50.742;4.224;2023-06-04T08:05:10;17.80;99.90
20712;DHT22;10517;50.742;4.224;2023-06-04T08:07:39;17.90;99.90
20712;DHT22;10517;50.742;4.224;2023-06-04T08:10:05;18.00;99.90
20712;DHT22;10517;50.742;4.224;2023-06-04T08:12:31;18.10;99.90
20712;DHT22;10517;50.742;4.224;2023-06-04T08:14:57;18.10;99.90
20712;DHT22;10517;50.742;4.224;2023-06-04T08:17:23;18.20;99.90
20712;DHT22;10517;50.742;4.224;2023-06-04T08:19:49;18.40;99.90
20712;DHT22;10517;50.742;4.224;2023-06-04T08:22:15;18.60;99.90
20712;DHT22;10517;50.742;4.224;2023-06-04T08:24:40;18.70;99.90
20712;DHT22;10517;50.742;4.224;2023-06-04T08:27:06;18.80;99.90
20712;DHT22;10517;50.742;4.224;2023-06-04T08:29:34;19.00;99.90
20712;DHT22;10517;50.742;4.224;2023-06-04T08:32:01;18.90;99.90
20712;DHT22;10517;50.742;4.224;2023-06-04T08:34:27;19.10;99.90
20712;DHT22;10517;50.742;4.224;2023-06-04T08:36:53;18.90;99.90
20712;DHT22;10517;50.742;4.224;2023-06-04T08:39:19;18.80;99.90
20712;DHT22;10517;50.742;4.224;2023-06-04T08:41:49;18.80;99.90
20712;DHT22;10517;50.742;4.224;2023-06-04T08:44:16;19.00;99.90
20712;DHT22;10517;50.742;4.224;2023-06-04T08:46:44;19.20;99.90
20712;DHT22;10517;50.742;4.224;2023-06-04T08:49:12;19.30;99.90
20712;DHT22;10517;50.742;4.224;2023-06-04T08:51:38;19.40;99.90
20712;DHT22;10517;50.742;4.224;2023-06-04T08:54:08;19.30;99.90
20712;DHT22;10517;50.742;4.224;2023-06-04T08:56:35;19.50;99.90
20712;DHT22;10517;50.742;4.224;2023-06-04T08:59:04;19.60;99.90
20712;DHT22;10517;50.742;4.224;2023-06-04T09:01:31;19.60;99.90
20712;DHT22;10517;50.742;4.224;2023-06-04T09:03:58;19.50;99.90
20712;DHT22;10517;50.742;4.224;2023-06-04T09:06:27;19.60;99.90
20712;DHT22;10517;50.742;4.224;2023-06-04T09:08:56;19.70;99.90
20712;DHT22;10517;50.742;4.224;2023-06-04T09:14:14;20.00;99.90
20712;DHT22;10517;50.742;4.224;2023-06-04T09:16:49;20.20;99.90
20712;DHT22;10517;50.742;4.224;2023-06-04T09:19:18;20.20;99.90
20712;DHT22;10517;50.742;4.224;2023-06-04T09:22:00;20.50;99.90
20712;DHT22;10517;50.742;4.224;2023-06-04T09:24:43;20.40;99.90
20712;DHT22;10517;50.742;4.224;2023-06-04T09:27:16;20.40;99.90
20712;DHT22;10517;50.742;4.224;2023-06-04T09:29:52;20.40;99.90
20712;DHT22;10517;50.742;4.224;2023-06-04T09:32:24;20.50;99.90
20712;DHT22;10517;50.742;4.224;2023-06-04T09:34:50;20.70;99.90
20712;DHT22;10517;50.742;4.224;2023-06-04T09:37:18;20.70;99.80
20712;DHT22;10517;50.742;4.224;2023-06-04T09:39:52;20.50;99.80
20712;DHT22;10517;50.742;4.224;2023-06-04T09:42:18;20.70;99.90
20712;DHT22;10517;50.742;4.224;2023-06-04T09:44:44;20.70;99.80
20712;DHT22;10517;50.742;4.224;2023-06-04T09:47:13;20.70;99.90
20712;DHT22;10517;50.742;4.224;2023-06-04T09:49:43;20.90;99.90
20712;DHT22;10517;50.742;4.224;2023-06-04T09:52:09;21.30;99.90
20712;DHT22;10517;50.742;4.224;2023-06-04T09:54:38;21.40;99.90
20712;DHT22;10517;50.742;4.224;2023-06-04T09:57:15;21.40;99.30
20712;DHT22;10517;50.742;4.224;2023-06-04T09:59:49;21.60;98.30
20712;DHT22;10517;50.742;4.224;2023-06-04T10:02:21;21.40;96.90
20712;DHT22;10517;50.742;4.224;2023-06-04T10:04:56;21.20;99.10
20712;DHT22;10517;50.742;4.224;2023-06-04T10:07:25;21.50;99.90
20712;DHT22;10517;50.742;4.224;2023-06-04T10:09:52;21.90;98.80
20712;DHT22;10517;50.742;4.224;2023-06-04T10:12:26;22.00;97.40
20712;DHT22;10517;50.742;4.224;2023-06-04T10:14:56;21.70;97.40
20712;DHT22;10517;50.742;4.224;2023-06-04T10:17:23;21.50;97.20
20712;DHT22;10517;50.742;4.224;2023-06-04T10:19:52;21.60;98.60
20712;DHT22;10517;50.742;4.224;2023-06-04T10:22:22;22.10;99.90
20712;DHT22;10517;50.742;4.224;2023-06-04T10:24:48;22.10;97.30
20712;DHT22;10517;50.742;4.224;2023-06-04T10:27:14;21.90;97.20
20712;DHT22;10517;50.742;4.224;2023-06-04T10:29:42;21.80;97.90
20712;DHT22;10517;50.742;4.224;2023-06-04T10:32:08;22.00;98.40
20712;DHT22;10517;50.742;4.224;2023-06-04T10:34:34;22.10;99.10
20712;DHT22;10517;50.742;4.224;2023-06-04T10:37:00;22.30;99.20
20712;DHT22;10517;50.742;4.224;2023-06-04T10:39:29;22.20;97.40
20712;DHT22;10517;50.742;4.224;2023-06-04T10:42:05;22.30;97.50
20712;DHT22;10517;50.742;4.224;2023-06-04T10:44:32;22.60;97.70
20712;DHT22;10517;50.742;4.224;2023-06-04T10:46:58;22.70;95.90
20712;DHT22;10517;50.742;4.224;2023-06-04T10:49:30;23.20;97.00
20712;DHT22;10517;50.742;4.224;2023-06-04T10:51:56;23.20;95.00
20712;DHT22;10517;50.742;4.224;2023-06-04T10:54:28;23.20;96.80
20712;DHT22;10517;50.742;4.224;2023-06-04T10:56:54;23.10;94.30
20712;DHT22;10517;50.742;4.224;2023-06-04T10:59:20;22.90;94.00
20712;DHT22;10517;50.742;4.224;2023-06-04T11:01:46;22.60;95.50
20712;DHT22;10517;50.742;4.224;2023-06-04T11:06:45;23.00;95.00
20712;DHT22;10517;50.742;4.224;2023-06-04T11:09:14;23.40;96.60
20712;DHT22;10517;50.742;4.224;2023-06-04T11:11:44;23.70;96.00
20712;DHT22;10517;50.742;4.224;2023-06-04T11:14:10;23.90;95.20
20712;DHT22;10517;50.742;4.224;2023-06-04T11:16:38;23.80;95.20
20712;DHT22;10517;50.742;4.224;2023-06-04T11:19:04;24.00;96.10
20712;DHT22;10517;50.742;4.224;2023-06-04T11:21:30;24.30;97.50
20712;DHT22;10517;50.742;4.224;2023-06-04T11:23:58;24.60;95.50
20712;DHT22;10517;50.742;4.224;2023-06-04T11:26:34;24.70;92.80
20712;DHT22;10517;50.742;4.224;2023-06-04T11:29:01;24.20;93.80
20712;DHT22;10517;50.742;4.224;2023-06-04T11:31:27;24.10;93.30
20712;DHT22;10517;50.742;4.224;2023-06-04T11:33:53;23.70;92.30
20712;DHT22;10517;50.742;4.224;2023-06-04T11:36:29;23.60;93.10
20712;DHT22;10517;50.742;4.224;2023-06-04T11:38:58;23.60;92.40
20712;DHT22;10517;50.742;4.224;2023-06-04T11:41:31;23.70;92.10
20712;DHT22;10517;50.742;4.224;2023-06-04T11:43:57;23.90;91.30
20712;DHT22;10517;50.742;4.224;2023-06-04T11:46:23;24.20;94.70
20712;DHT22;10517;50.742;4.224;2023-06-04T11:48:52;24.50;92.10
20712;DHT22;10517;50.742;4.224;2023-06-04T11:51:19;24.30;91.70
20712;DHT22;10517;50.742;4.224;2023-06-04T11:53:46;24.10;91.40
20712;DHT22;10517;50.742;4.224;2023-06-04T11:56:12;24.20;90.90
20712;DHT22;10517;50.742;4.224;2023-06-04T11:58:37;24.30;91.10
20712;DHT22;10517;50.742;4.224;2023-06-04T12:01:04;24.40;92.40
20712;DHT22;10517;50.742;4.224;2023-06-04T12:03:38;24.80;92.80
20712;DHT22;10517;50.742;4.224;2023-06-04T12:06:18;25.20;94.00
20712;DHT22;10517;50.742;4.224;2023-06-04T12:08:51;25.60;93.00
20712;DHT22;10517;50.742;4.224;2023-06-04T12:11:32;25.90;90.60
20712;DHT22;10517;50.742;4.224;2023-06-04T12:14:00;26.10;92.30
20712;DHT22;10517;50.742;4.224;2023-06-04T12:16:26;25.80;91.30
20712;DHT22;10517;50.742;4.224;2023-06-04T12:18:52;25.70;91.40
20712;DHT22;10517;50.742;4.224;2023-06-04T12:21:29;25.90;92.20
20712;DHT22;10517;50.742;4.224;2023-06-04T12:24:06;25.60;87.20
20712;DHT22;10517;50.742;4.224;2023-06-04T12:26:32;25.60;89.00
20712;DHT22;10517;50.742;4.224;2023-06-04T12:29:10;25.50;89.40
20712;DHT22;10517;50.742;4.224;2023-06-04T12:31:37;25.40;90.20
20712;DHT22;10517;50.742;4.224;2023-06-04T12:34:03;25.30;88.10
20712;DHT22;10517;50.742;4.224;2023-06-04T12:36:28;25.80;92.20
20712;DHT22;10517;50.742;4.224;2023-06-04T12:38:59;25.60;83.30
20712;DHT22;10517;50.742;4.224;2023-06-04T12:41:29;25.90;88.30
20712;DHT22;10517;50.742;4.224;2023-06-04T12:43:55;25.80;86.00
20712;DHT22;10517;50.742;4.224;2023-06-04T12:46:21;25.40;87.50
20712;DHT22;10517;50.742;4.224;2023-06-04T12:48:48;25.80;90.00
20712;DHT22;10517;50.742;4.224;2023-06-04T12:51:14;26.30;90.90
20712;DHT22;10517;50.742;4.224;2023-06-04T12:53:40;26.80;86.40
20712;DHT22;10517;50.742;4.224;2023-06-04T12:56:07;27.00;86.50
20712;DHT22;10517;50.742;4.224;2023-06-04T12:58:33;27.00;84.20
20712;DHT22;10517;50.742;4.224;2023-06-04T13:00:58;27.70;86.70
20712;DHT22;10517;50.742;4.224;2023-06-04T13:03:25;28.60;84.20
20712;DHT22;10517;50.742;4.224;2023-06-04T13:05:51;29.10;78.90
20712;DHT22;10517;50.742;4.224;2023-06-04T13:08:19;28.70;79.20
20712;DHT22;10517;50.742;4.224;2023-06-04T13:10:46;30.00;84.40
20712;DHT22;10517;50.742;4.224;2023-06-04T13:13:12;31.40;81.30
20712;DHT22;10517;50.742;4.224;2023-06-04T13:15:37;32.30;74.70
20712;DHT22;10517;50.742;4.224;2023-06-04T13:18:03;32.20;73.00
20712;DHT22;10517;50.742;4.224;2023-06-04T13:20:28;32.80;75.90
20712;DHT22;10517;50.742;4.224;2023-06-04T13:22:54;33.10;73.10
20712;DHT22;10517;50.742;4.224;2023-06-04T13:25:20;33.20;68.60
20712;DHT22;10517;50.742;4.224;2023-06-04T13:27:47;33.20;67.10
20712;DHT22;10517;50.742;4.224;2023-06-04T13:30:13;32.90;68.00
20712;DHT22;10517;50.742;4.224;2023-06-04T13:32:38;32.70;67.70
20712;DHT22;10517;50.742;4.224;2023-06-04T13:35:04;32.50;65.70
20712;DHT22;10517;50.742;4.224;2023-06-04T13:37:30;34.20;67.40
20712;DHT22;10517;50.742;4.224;2023-06-04T13:39:56;35.40;67.50
20712;DHT22;10517;50.742;4.224;2023-06-04T13:42:22;35.90;66.20
20712;DHT22;10517;50.742;4.224;2023-06-04T13:44:47;34.80;62.40
20712;DHT22;10517;50.742;4.224;2023-06-04T13:47:13;34.10;62.70
20712;DHT22;10517;50.742;4.224;2023-06-04T13:49:39;33.90;61.30
20712;DHT22;10517;50.742;4.224;2023-06-04T13:52:04;34.80;64.40
20712;DHT22;10517;50.742;4.224;2023-06-04T13:54:30;35.20;59.00
20712;DHT22;10517;50.742;4.224;2023-06-04T13:56:57;34.30;58.40
20712;DHT22;10517;50.742;4.224;2023-06-04T13:59:22;33.70;57.80
20712;DHT22;10517;50.742;4.224;2023-06-04T14:01:48;32.30;57.70
20712;DHT22;10517;50.742;4.224;2023-06-04T14:04:13;31.20;60.20
20712;DHT22;10517;50.742;4.224;2023-06-04T14:06:39;32.00;62.20
20712;DHT22;10517;50.742;4.224;2023-06-04T14:09:05;33.40;63.00
20712;DHT22;10517;50.742;4.224;2023-06-04T14:11:34;33.60;57.90
20712;DHT22;10517;50.742;4.224;2023-06-04T14:14:00;33.40;58.00
20712;DHT22;10517;50.742;4.224;2023-06-04T14:16:26;33.30;57.40
20712;DHT22;10517;50.742;4.224;2023-06-04T14:18:52;33.60;59.20
20712;DHT22;10517;50.742;4.224;2023-06-04T14:21:17;34.60;57.20
20712;DHT22;10517;50.742;4.224;2023-06-04T14:23:43;33.90;57.50
20712;DHT22;10517;50.742;4.224;2023-06-04T14:26:09;33.30;56.50
20712;DHT22;10517;50.742;4.224;2023-06-04T14:28:35;33.40;58.60
20712;DHT22;10517;50.742;4.224;2023-06-04T14:31:01;33.70;56.30
20712;DHT22;10517;50.742;4.224;2023-06-04T14:33:27;34.20;56.60
20712;DHT22;10517;50.742;4.224;2023-06-04T14:35:52;34.60;56.00
20712;DHT22;10517;50.742;4.224;2023-06-04T14:38:18;34.70;55.90
20712;DHT22;10517;50.742;4.224;2023-06-04T14:40:43;34.00;56.60
20712;DHT22;10517;50.742;4.224;2023-06-04T14:43:12;34.00;55.80
20712;DHT22;10517;50.742;4.224;2023-06-04T14:45:38;33.80;55.70
20712;DHT22;10517;50.742;4.224;2023-06-04T14:48:05;35.20;56.70
20712;DHT22;10517;50.742;4.224;2023-06-04T14:50:31;36.10;57.10
20712;DHT22;10517;50.742;4.224;2023-06-04T14:52:56;36.90;54.40
20712;DHT22;10517;50.742;4.224;2023-06-04T14:55:24;36.20;53.20
20712;DHT22;10517;50.742;4.224;2023-06-04T14:57:51;36.30;52.80
20712;DHT22;10517;50.742;4.224;2023-06-04T15:00:17;35.50;51.50
20712;DHT22;10517;50.742;4.224;2023-06-04T15:02:42;36.00;54.00
20712;DHT22;10517;50.742;4.224;2023-06-04T15:05:11;37.60;51.30
20712;DHT22;10517;50.742;4.224;2023-06-04T15:07:37;37.00;50.80
20712;DHT22;10517;50.742;4.224;2023-06-04T15:10:04;35.10;50.90
20712;DHT22;10517;50.742;4.224;2023-06-04T15:12:31;35.10;52.50
20712;DHT22;10517;50.742;4.224;2023-06-04T15:14:58;35.70;52.50
20712;DHT22;10517;50.742;4.224;2023-06-04T15:17:24;35.80;51.90
20712;DHT22;10517;50.742;4.224;2023-06-04T15:19:50;35.30;51.00
20712;DHT22;10517;50.742;4.224;2023-06-04T15:22:16;36.10;52.20
20712;DHT22;10517;50.742;4.224;2023-06-04T15:24:41;36.40;50.50
20712;DHT22;10517;50.742;4.224;2023-06-04T15:27:07;36.90;50.90
20712;DHT22;10517;50.742;4.224;2023-06-04T15:29:32;36.30;49.60
20712;DHT22;10517;50.742;4.224;2023-06-04T15:31:58;36.60;49.20
20712;DHT22;10517;50.742;4.224;2023-06-04T15:34:23;35.90;49.50
20712;DHT22;10517;50.742;4.224;2023-06-04T15:36:49;34.70;49.20
20712;DHT22;10517;50.742;4.224;2023-06-04T15:39:15;35.20;51.40
20712;DHT22;10517;50.742;4.224;2023-06-04T15:41:40;37.00;50.40